Aviation Digital Data Service (ADDS)

Output produced by METARs form (0013 UTC 26 April 2017)
found at http://aviationweather.gov/adds/metars/
 
KSSI 252343Z 2600/2624 24005KT P6SM FEW050 
     FM261700 17008KT P6SM FEW045